sensor_id;sensor_type;location;lat;lon;timestamp;P1;durP1;ratioP1;P2;durP2;ratioP2
18973;SDS011;9621;48.690;9.466;2022-12-07T09:07:30;46.40;;;23.57;;
18973;SDS011;9621;48.690;9.466;2022-12-07T09:10:04;43.93;;;22.57;;
18973;SDS011;9621;48.690;9.466;2022-12-07T09:12:31;36.40;;;20.00;;
18973;SDS011;9621;48.690;9.466;2022-12-07T09:14:59;30.33;;;18.20;;
18973;SDS011;9621;48.690;9.466;2022-12-07T09:17:27;30.03;;;16.37;;
18973;SDS011;9621;48.690;9.466;2022-12-07T09:19:58;25.87;;;13.90;;
18973;SDS011;9621;48.690;9.466;2022-12-07T09:22:27;20.97;;;12.97;;
18973;SDS011;9621;48.690;9.466;2022-12-07T09:24:56;18.87;;;12.17;;
18973;SDS011;9621;48.690;9.466;2022-12-07T09:27:23;18.60;;;11.37;;
18973;SDS011;9621;48.690;9.466;2022-12-07T09:29:50;17.43;;;11.77;;
18973;SDS011;9621;48.690;9.466;2022-12-07T09:32:17;13.57;;;10.07;;
18973;SDS011;9621;48.690;9.466;2022-12-07T09:34:44;15.20;;;9.97;;
18973;SDS011;9621;48.690;9.466;2022-12-07T09:37:11;16.30;;;9.93;;
18973;SDS011;9621;48.690;9.466;2022-12-07T09:39:40;16.17;;;10.20;;
18973;SDS011;9621;48.690;9.466;2022-12-07T09:42:07;14.27;;;10.47;;
18973;SDS011;9621;48.690;9.466;2022-12-07T09:44:39;12.00;;;8.90;;
18973;SDS011;9621;48.690;9.466;2022-12-07T09:47:07;11.50;;;9.10;;
18973;SDS011;9621;48.690;9.466;2022-12-07T09:49:36;11.27;;;8.10;;
18973;SDS011;9621;48.690;9.466;2022-12-07T09:52:15;13.47;;;8.23;;
18973;SDS011;9621;48.690;9.466;2022-12-07T09:54:47;10.90;;;7.97;;
18973;SDS011;9621;48.690;9.466;2022-12-07T09:57:16;11.33;;;8.07;;
18973;SDS011;9621;48.690;9.466;2022-12-07T09:59:43;10.77;;;8.43;;
18973;SDS011;9621;48.690;9.466;2022-12-07T10:02:19;11.33;;;9.03;;
18973;SDS011;9621;48.690;9.466;2022-12-07T10:04:58;11.13;;;8.47;;
18973;SDS011;9621;48.690;9.466;2022-12-07T10:07:25;11.27;;;8.43;;
18973;SDS011;9621;48.690;9.466;2022-12-07T10:09:53;12.00;;;7.97;;
18973;SDS011;9621;48.690;9.466;2022-12-07T10:12:21;13.17;;;8.67;;
18973;SDS011;9621;48.690;9.466;2022-12-07T10:14:54;10.53;;;8.07;;
18973;SDS011;9621;48.690;9.466;2022-12-07T10:17:30;12.87;;;7.63;;
18973;SDS011;9621;48.690;9.466;2022-12-07T10:22:56;11.70;;;8.00;;
18973;SDS011;9621;48.690;9.466;2022-12-07T10:25:27;10.70;;;8.17;;
18973;SDS011;9621;48.690;9.466;2022-12-07T10:27:58;9.83;;;7.67;;
18973;SDS011;9621;48.690;9.466;2022-12-07T10:30:26;9.00;;;7.60;;
18973;SDS011;9621;48.690;9.466;2022-12-07T10:32:53;10.03;;;7.30;;
18973;SDS011;9621;48.690;9.466;2022-12-07T10:35:22;9.63;;;7.20;;
18973;SDS011;9621;48.690;9.466;2022-12-07T10:37:51;9.10;;;7.20;;
18973;SDS011;9621;48.690;9.466;2022-12-07T10:40:24;11.23;;;7.60;;
18973;SDS011;9621;48.690;9.466;2022-12-07T10:43:04;9.70;;;6.93;;
18973;SDS011;9621;48.690;9.466;2022-12-07T10:45:41;8.53;;;7.00;;
18973;SDS011;9621;48.690;9.466;2022-12-07T10:48:30;9.77;;;7.27;;
18973;SDS011;9621;48.690;9.466;2022-12-07T10:51:04;9.30;;;6.93;;
18973;SDS011;9621;48.690;9.466;2022-12-07T10:53:43;10.43;;;7.90;;
18973;SDS011;9621;48.690;9.466;2022-12-07T10:56:38;10.33;;;7.30;;
18973;SDS011;9621;48.690;9.466;2022-12-07T10:59:21;8.97;;;6.97;;
18973;SDS011;9621;48.690;9.466;2022-12-07T11:01:59;7.70;;;6.43;;
18973;SDS011;9621;48.690;9.466;2022-12-07T11:04:50;9.43;;;7.07;;
18973;SDS011;9621;48.690;9.466;2022-12-07T11:07:27;9.43;;;6.67;;
18973;SDS011;9621;48.690;9.466;2022-12-07T11:10:05;8.47;;;6.90;;
18973;SDS011;9621;48.690;9.466;2022-12-07T11:12:50;8.87;;;6.07;;
18973;SDS011;9621;48.690;9.466;2022-12-07T11:15:35;8.77;;;6.73;;
18973;SDS011;9621;48.690;9.466;2022-12-07T11:18:14;9.47;;;6.70;;
18973;SDS011;9621;48.690;9.466;2022-12-07T11:20:49;10.27;;;6.70;;
18973;SDS011;9621;48.690;9.466;2022-12-07T11:23:23;9.63;;;6.80;;
18973;SDS011;9621;48.690;9.466;2022-12-07T11:25:58;7.63;;;6.20;;
18973;SDS011;9621;48.690;9.466;2022-12-07T11:28:36;7.93;;;6.27;;
18973;SDS011;9621;48.690;9.466;2022-12-07T11:31:22;7.93;;;6.03;;
18973;SDS011;9621;48.690;9.466;2022-12-07T11:33:56;8.60;;;6.50;;
18973;SDS011;9621;48.690;9.466;2022-12-07T11:36:32;9.10;;;6.33;;
18973;SDS011;9621;48.690;9.466;2022-12-07T11:39:04;7.90;;;5.70;;
18973;SDS011;9621;48.690;9.466;2022-12-07T11:41:38;9.70;;;6.70;;
18973;SDS011;9621;48.690;9.466;2022-12-07T11:44:22;8.90;;;6.07;;
18973;SDS011;9621;48.690;9.466;2022-12-07T11:46:58;9.57;;;7.13;;
18973;SDS011;9621;48.690;9.466;2022-12-07T11:49:33;9.03;;;6.07;;
18973;SDS011;9621;48.690;9.466;2022-12-07T11:52:09;8.77;;;6.33;;
18973;SDS011;9621;48.690;9.466;2022-12-07T11:54:44;11.83;;;6.10;;
18973;SDS011;9621;48.690;9.466;2022-12-07T11:57:16;10.57;;;6.63;;
18973;SDS011;9621;48.690;9.466;2022-12-07T11:59:49;12.87;;;6.30;;
18973;SDS011;9621;48.690;9.466;2022-12-07T12:02:24;7.60;;;6.57;;
18973;SDS011;9621;48.690;9.466;2022-12-07T12:04:58;8.33;;;6.00;;
18973;SDS011;9621;48.690;9.466;2022-12-07T12:07:32;8.33;;;6.13;;
18973;SDS011;9621;48.690;9.466;2022-12-07T12:10:01;9.13;;;6.40;;
18973;SDS011;9621;48.690;9.466;2022-12-07T12:12:39;8.37;;;5.97;;
18973;SDS011;9621;48.690;9.466;2022-12-07T12:15:26;8.47;;;6.13;;
18973;SDS011;9621;48.690;9.466;2022-12-07T12:18:12;8.43;;;6.43;;
18973;SDS011;9621;48.690;9.466;2022-12-07T12:20:53;8.03;;;5.90;;
18973;SDS011;9621;48.690;9.466;2022-12-07T12:23:24;8.77;;;5.90;;
18973;SDS011;9621;48.690;9.466;2022-12-07T12:25:55;8.17;;;5.90;;
18973;SDS011;9621;48.690;9.466;2022-12-07T12:28:26;7.33;;;5.70;;
18973;SDS011;9621;48.690;9.466;2022-12-07T12:31:11;8.17;;;5.93;;
18973;SDS011;9621;48.690;9.466;2022-12-07T12:33:43;8.00;;;6.13;;
18973;SDS011;9621;48.690;9.466;2022-12-07T12:36:18;7.67;;;5.87;;
18973;SDS011;9621;48.690;9.466;2022-12-07T12:38:49;8.00;;;5.97;;
18973;SDS011;9621;48.690;9.466;2022-12-07T12:44:40;9.20;;;6.10;;
18973;SDS011;9621;48.690;9.466;2022-12-07T12:50:32;8.23;;;6.07;;
18973;SDS011;9621;48.690;9.466;2022-12-07T12:53:05;8.43;;;5.77;;
18973;SDS011;9621;48.690;9.466;2022-12-07T12:55:46;6.93;;;4.93;;
18973;SDS011;9621;48.690;9.466;2022-12-07T12:58:36;8.80;;;5.47;;
18973;SDS011;9621;48.690;9.466;2022-12-07T13:04:24;7.40;;;5.53;;
18973;SDS011;9621;48.690;9.466;2022-12-07T13:07:12;8.70;;;5.63;;
18973;SDS011;9621;48.690;9.466;2022-12-07T13:09:57;8.20;;;4.93;;
18973;SDS011;9621;48.690;9.466;2022-12-07T13:12:24;9.67;;;5.33;;
18973;SDS011;9621;48.690;9.466;2022-12-07T13:14:58;8.00;;;5.27;;
18973;SDS011;9621;48.690;9.466;2022-12-07T13:20:45;9.03;;;6.00;;
18973;SDS011;9621;48.690;9.466;2022-12-07T13:23:21;8.87;;;5.83;;
18973;SDS011;9621;48.690;9.466;2022-12-07T13:25:54;7.67;;;6.27;;
18973;SDS011;9621;48.690;9.466;2022-12-07T13:28:26;7.97;;;6.20;;
18973;SDS011;9621;48.690;9.466;2022-12-07T13:31:09;7.83;;;6.00;;
18973;SDS011;9621;48.690;9.466;2022-12-07T13:33:45;7.50;;;5.30;;
18973;SDS011;9621;48.690;9.466;2022-12-07T13:36:21;11.00;;;5.73;;
18973;SDS011;9621;48.690;9.466;2022-12-07T13:38:54;10.53;;;6.23;;
18973;SDS011;9621;48.690;9.466;2022-12-07T13:41:23;19.03;;;8.40;;
18973;SDS011;9621;48.690;9.466;2022-12-07T13:43:52;16.13;;;8.47;;
18973;SDS011;9621;48.690;9.466;2022-12-07T13:46:26;16.43;;;7.37;;
18973;SDS011;9621;48.690;9.466;2022-12-07T13:49:14;13.67;;;6.83;;
18973;SDS011;9621;48.690;9.466;2022-12-07T13:51:47;10.57;;;6.23;;
18973;SDS011;9621;48.690;9.466;2022-12-07T13:54:16;8.07;;;5.27;;
18973;SDS011;9621;48.690;9.466;2022-12-07T13:56:46;9.53;;;5.20;;
18973;SDS011;9621;48.690;9.466;2022-12-07T13:59:16;7.87;;;5.00;;
18973;SDS011;9621;48.690;9.466;2022-12-07T14:01:45;7.50;;;5.40;;
18973;SDS011;9621;48.690;9.466;2022-12-07T14:04:28;7.90;;;5.30;;
18973;SDS011;9621;48.690;9.466;2022-12-07T14:06:57;6.20;;;5.03;;
18973;SDS011;9621;48.690;9.466;2022-12-07T14:09:27;8.67;;;5.57;;
18973;SDS011;9621;48.690;9.466;2022-12-07T14:11:55;7.83;;;6.17;;
18973;SDS011;9621;48.690;9.466;2022-12-07T14:14:25;10.47;;;7.23;;
18973;SDS011;9621;48.690;9.466;2022-12-07T14:16:55;9.57;;;6.57;;
18973;SDS011;9621;48.690;9.466;2022-12-07T14:19:43;8.00;;;6.20;;
18973;SDS011;9621;48.690;9.466;2022-12-07T14:22:25;8.63;;;6.03;;
18973;SDS011;9621;48.690;9.466;2022-12-07T14:25:00;11.00;;;6.80;;
18973;SDS011;9621;48.690;9.466;2022-12-07T14:27:37;10.57;;;6.40;;
18973;SDS011;9621;48.690;9.466;2022-12-07T14:30:05;11.17;;;6.53;;
18973;SDS011;9621;48.690;9.466;2022-12-07T14:32:42;9.03;;;7.07;;
18973;SDS011;9621;48.690;9.466;2022-12-07T14:35:14;7.00;;;5.37;;
18973;SDS011;9621;48.690;9.466;2022-12-07T14:37:44;9.37;;;6.57;;
18973;SDS011;9621;48.690;9.466;2022-12-07T14:40:14;10.27;;;7.57;;
18973;SDS011;9621;48.690;9.466;2022-12-07T14:42:42;10.53;;;6.87;;
18973;SDS011;9621;48.690;9.466;2022-12-07T14:45:13;7.83;;;6.47;;
18973;SDS011;9621;48.690;9.466;2022-12-07T14:47:42;9.67;;;7.73;;
18973;SDS011;9621;48.690;9.466;2022-12-07T14:50:11;10.50;;;8.33;;
18973;SDS011;9621;48.690;9.466;2022-12-07T14:52:38;11.53;;;8.07;;
18973;SDS011;9621;48.690;9.466;2022-12-07T14:55:08;16.20;;;10.00;;
18973;SDS011;9621;48.690;9.466;2022-12-07T14:57:45;14.63;;;10.97;;
18973;SDS011;9621;48.690;9.466;2022-12-07T15:00:16;15.80;;;11.27;;
